sensor_id;sensor_type;location;lat;lon;timestamp;temperature;humidity
46458;DHT22;32155;54.076;12.092;2023-02-28T14:17:15;29.80;35.40
46458;DHT22;32155;54.076;12.092;2023-02-28T14:40:33;26.30;39.00
46458;DHT22;32155;54.076;12.092;2023-02-28T14:43:03;25.90;40.20
46458;DHT22;32155;54.076;12.092;2023-02-28T14:45:31;25.20;40.60
46458;DHT22;32155;54.076;12.092;2023-02-28T14:48:16;24.70;40.60
46458;DHT22;32155;54.076;12.092;2023-02-28T14:50:52;24.70;41.40
46458;DHT22;32155;54.076;12.092;2023-02-28T14:53:23;24.40;42.20
46458;DHT22;32155;54.076;12.092;2023-02-28T14:55:51;24.60;41.00
46458;DHT22;32155;54.076;12.092;2023-02-28T14:58:33;23.80;42.60
46458;DHT22;32155;54.076;12.092;2023-02-28T15:01:03;23.80;42.80
46458;DHT22;32155;54.076;12.092;2023-02-28T15:06:04;23.00;43.40
46458;DHT22;32155;54.076;12.092;2023-02-28T15:08:31;22.50;43.50
46458;DHT22;32155;54.076;12.092;2023-02-28T15:11:05;21.70;45.90
46458;DHT22;32155;54.076;12.092;2023-02-28T15:16:05;21.30;46.60
46458;DHT22;32155;54.076;12.092;2023-02-28T15:18:59;20.70;47.20
46458;DHT22;32155;54.076;12.092;2023-02-28T15:21:34;18.60;49.70
46458;DHT22;32155;54.076;12.092;2023-02-28T15:24:13;17.10;52.80
46458;DHT22;32155;54.076;12.092;2023-02-28T15:26:45;16.10;55.10
46458;DHT22;32155;54.076;12.092;2023-02-28T15:29:25;15.40;56.80
46458;DHT22;32155;54.076;12.092;2023-02-28T15:32:07;14.30;59.50
46458;DHT22;32155;54.076;12.092;2023-02-28T15:34:41;13.80;61.50
46458;DHT22;32155;54.076;12.092;2023-02-28T15:39:55;12.70;63.90
46458;DHT22;32155;54.076;12.092;2023-02-28T15:42:30;12.10;66.90
46458;DHT22;32155;54.076;12.092;2023-02-28T15:45:05;11.70;69.00
46458;DHT22;32155;54.076;12.092;2023-02-28T15:47:34;11.20;70.00
46458;DHT22;32155;54.076;12.092;2023-02-28T15:50:14;10.80;71.20
46458;DHT22;32155;54.076;12.092;2023-02-28T15:52:43;10.50;72.90
46458;DHT22;32155;54.076;12.092;2023-02-28T15:55:25;10.10;74.70
46458;DHT22;32155;54.076;12.092;2023-02-28T15:57:55;9.70;76.10
46458;DHT22;32155;54.076;12.092;2023-02-28T16:00:26;9.50;77.30
46458;DHT22;32155;54.076;12.092;2023-02-28T16:02:52;9.30;79.10
46458;DHT22;32155;54.076;12.092;2023-02-28T16:05:23;9.10;79.30
46458;DHT22;32155;54.076;12.092;2023-02-28T16:07:54;8.90;81.30
46458;DHT22;32155;54.076;12.092;2023-02-28T16:10:21;8.70;82.50
46458;DHT22;32155;54.076;12.092;2023-02-28T16:12:52;8.50;83.70
46458;DHT22;32155;54.076;12.092;2023-02-28T16:15:25;8.50;84.70
46458;DHT22;32155;54.076;12.092;2023-02-28T16:17:55;8.30;86.20
46458;DHT22;32155;54.076;12.092;2023-02-28T16:20:23;8.10;88.90
46458;DHT22;32155;54.076;12.092;2023-02-28T16:22:49;7.90;90.40
46458;DHT22;32155;54.076;12.092;2023-02-28T16:25:26;7.70;91.50
46458;DHT22;32155;54.076;12.092;2023-02-28T16:28:19;7.70;93.00
46458;DHT22;32155;54.076;12.092;2023-02-28T16:30:46;7.60;94.90
46458;DHT22;32155;54.076;12.092;2023-02-28T16:33:14;7.40;96.70
46458;DHT22;32155;54.076;12.092;2023-02-28T16:35:42;7.30;99.00
46458;DHT22;32155;54.076;12.092;2023-02-28T16:38:08;7.10;99.90
46458;DHT22;32155;54.076;12.092;2023-02-28T16:40:36;7.00;99.90
46458;DHT22;32155;54.076;12.092;2023-02-28T16:43:07;6.90;99.90
46458;DHT22;32155;54.076;12.092;2023-02-28T16:45:34;6.80;99.90
46458;DHT22;32155;54.076;12.092;2023-02-28T16:48:02;6.60;99.90
46458;DHT22;32155;54.076;12.092;2023-02-28T16:50:33;6.50;99.90
46458;DHT22;32155;54.076;12.092;2023-02-28T16:52:59;6.40;99.90
46458;DHT22;32155;54.076;12.092;2023-02-28T16:55:26;6.30;99.90
46458;DHT22;32155;54.076;12.092;2023-02-28T16:57:58;6.20;99.90
46458;DHT22;32155;54.076;12.092;2023-02-28T17:00:27;6.10;99.90
46458;DHT22;32155;54.076;12.092;2023-02-28T17:02:53;5.90;99.90
46458;DHT22;32155;54.076;12.092;2023-02-28T17:05:22;5.90;99.90
46458;DHT22;32155;54.076;12.092;2023-02-28T17:07:54;5.80;99.90
46458;DHT22;32155;54.076;12.092;2023-02-28T17:10:23;5.60;99.90
46458;DHT22;32155;54.076;12.092;2023-02-28T17:12:49;5.50;99.90
46458;DHT22;32155;54.076;12.092;2023-02-28T17:15:19;5.40;99.90
46458;DHT22;32155;54.076;12.092;2023-02-28T17:17:47;5.40;99.90
46458;DHT22;32155;54.076;12.092;2023-02-28T17:20:20;5.30;99.90
46458;DHT22;32155;54.076;12.092;2023-02-28T17:26:13;5.00;99.90
46458;DHT22;32155;54.076;12.092;2023-02-28T17:28:41;5.00;99.90
46458;DHT22;32155;54.076;12.092;2023-02-28T17:31:11;4.90;99.90
46458;DHT22;32155;54.076;12.092;2023-02-28T17:33:41;4.70;99.90
46458;DHT22;32155;54.076;12.092;2023-02-28T17:36:28;4.70;99.90
46458;DHT22;32155;54.076;12.092;2023-02-28T17:39:03;4.60;99.90
46458;DHT22;32155;54.076;12.092;2023-02-28T17:41:40;4.50;99.90
46458;DHT22;32155;54.076;12.092;2023-02-28T17:44:07;4.40;99.90
46458;DHT22;32155;54.076;12.092;2023-02-28T17:46:36;4.30;99.90
46458;DHT22;32155;54.076;12.092;2023-02-28T17:49:04;4.30;99.90
46458;DHT22;32155;54.076;12.092;2023-02-28T17:51:30;4.30;99.90
46458;DHT22;32155;54.076;12.092;2023-02-28T17:53:56;4.20;99.90
46458;DHT22;32155;54.076;12.092;2023-02-28T17:56:23;4.20;99.90
46458;DHT22;32155;54.076;12.092;2023-02-28T17:58:50;4.20;99.90
46458;DHT22;32155;54.076;12.092;2023-02-28T18:01:16;4.10;99.90
46458;DHT22;32155;54.076;12.092;2023-02-28T18:03:42;4.00;99.90
46458;DHT22;32155;54.076;12.092;2023-02-28T18:06:27;4.00;99.90
46458;DHT22;32155;54.076;12.092;2023-02-28T18:08:56;3.90;99.90
46458;DHT22;32155;54.076;12.092;2023-02-28T18:11:24;3.80;99.90
46458;DHT22;32155;54.076;12.092;2023-02-28T18:13:53;3.70;99.90
46458;DHT22;32155;54.076;12.092;2023-02-28T18:16:21;3.70;99.90
46458;DHT22;32155;54.076;12.092;2023-02-28T18:18:48;3.70;99.90
46458;DHT22;32155;54.076;12.092;2023-02-28T18:21:15;3.60;99.90
46458;DHT22;32155;54.076;12.092;2023-02-28T18:23:41;3.60;99.90
46458;DHT22;32155;54.076;12.092;2023-02-28T18:26:14;3.50;99.90
46458;DHT22;32155;54.076;12.092;2023-02-28T18:28:40;3.40;99.90
46458;DHT22;32155;54.076;12.092;2023-02-28T18:31:08;3.40;99.90
46458;DHT22;32155;54.076;12.092;2023-02-28T18:33:34;3.40;99.90
46458;DHT22;32155;54.076;12.092;2023-02-28T18:36:00;3.40;99.90
46458;DHT22;32155;54.076;12.092;2023-02-28T18:38:26;3.30;99.90
46458;DHT22;32155;54.076;12.092;2023-02-28T18:41:08;3.30;99.90
46458;DHT22;32155;54.076;12.092;2023-02-28T18:43:42;3.10;99.90
46458;DHT22;32155;54.076;12.092;2023-02-28T18:53:34;3.00;99.90
46458;DHT22;32155;54.076;12.092;2023-02-28T19:50:00;2.30;99.90
46458;DHT22;32155;54.076;12.092;2023-02-28T19:52:33;2.40;99.90
46458;DHT22;32155;54.076;12.092;2023-02-28T20:02:02;2.20;99.90
46458;DHT22;32155;54.076;12.092;2023-02-28T20:07:27;2.00;99.90
46458;DHT22;32155;54.076;12.092;2023-02-28T20:09:56;1.90;99.90
46458;DHT22;32155;54.076;12.092;2023-02-28T20:12:36;2.00;99.90
46458;DHT22;32155;54.076;12.092;2023-02-28T20:15:02;2.00;99.90
